Hansa Limburg — A8IH6 — position and weather

sailwx.info

Track history (hours):
 
Tides and Currents Weather Stations Pressure Air Temp Water Temp Dewpoint Dewpoint Depression Visibility Wind Speed Wind Dir Waves Ship Positions

Hansa Limburg

Last reported at 2015-Jul-05 22:33 UTC. Time now 2015-Jul-05 23:14 UTC.
Position N 36°58' E 026°46'.

Length 175.5 m; beam 27.4 m; draft 10.9 m.

Type: Ship (hazmat cat D). MMSI: 636090980.

Date/timePositionNaut miles runAvg speedWind from/ knotsBaromVisibWave heightAir tempDewpointWater temp
2015-Jul-05 22:33N 36°58' E 026°46'2813.6
2015-Jul-05 20:31N 36°33' E 027°01'1514.4
2015-Jul-05 19:29N 36°31' E 027°19'  
2015-Jul-02 19:11N 34°50' E 034°27'914.8
2015-Jul-02 18:34N 34°41' E 034°24'8 3.3
2015-Jul-02 16:10N 34°34' E 034°19'1 1.0
2015-Jul-02 15:34N 34°34' E 034°18'1 1.0
2015-Jul-02 14:34N 34°34' E 034°17'2 0.9
2015-Jul-02 12:15N 34°34' E 034°14'6 1.0
2015-Jul-02 05:33N 34°33' E 034°07'6 2.8
2015-Jul-02 03:15N 34°28' E 034°02'1115.7
2015-Jul-02 02:33N 34°19' E 033°54'1915.7
2015-Jul-02 01:22N 34°03' E 033°42'2915.2
2015-Jul-01 23:30N 33°40' E 033°22'1514.7
2015-Jul-01 22:28N 33°27' E 033°12'1914.5
2015-Jul-01 21:11N 33°12' E 032°60'914.4
2015-Jul-01 20:34N 33°04' E 032°54'1414.2
2015-Jul-01 19:33N 32°52' E 032°45'3114.3
2015-Jul-01 17:25N 32°27' E 032°25'  
2015-Jun-25 23:07N 35°40' E 017°28'915.9
2015-Jun-25 22:33N 35°43' E 017°17'  
Track history (hours):
 
Tides and Currents Weather Stations Pressure Air Temp Water Temp Dewpoint Dewpoint Depression Visibility Wind Speed Wind Dir Waves Ship Positions

Hansa Limburg

Last reported at 2015-Jul-05 22:33 UTC. Time now 2015-Jul-05 23:14 UTC.
Position N 36°58' E 026°46'.

Length 175.5 m; beam 27.4 m; draft 10.9 m.

Type: Ship (hazmat cat D). MMSI: 636090980.

Date/timePositionNaut miles runAvg speedWind from/ knotsBaromVisibWave heightAir tempDewpointWater temp
2015-Jul-05 22:33N 36°58' E 026°46'2813.6
2015-Jul-05 20:31N 36°33' E 027°01'1514.4
2015-Jul-05 19:29N 36°31' E 027°19'  
2015-Jul-02 19:11N 34°50' E 034°27'914.8
2015-Jul-02 18:34N 34°41' E 034°24'8 3.3
2015-Jul-02 16:10N 34°34' E 034°19'1 1.0
2015-Jul-02 15:34N 34°34' E 034°18'1 1.0
2015-Jul-02 14:34N 34°34' E 034°17'2 0.9
2015-Jul-02 12:15N 34°34' E 034°14'6 1.0
2015-Jul-02 05:33N 34°33' E 034°07'6 2.8
2015-Jul-02 03:15N 34°28' E 034°02'1115.7
2015-Jul-02 02:33N 34°19' E 033°54'1915.7
2015-Jul-02 01:22N 34°03' E 033°42'2915.2
2015-Jul-01 23:30N 33°40' E 033°22'1514.7
2015-Jul-01 22:28N 33°27' E 033°12'1914.5
2015-Jul-01 21:11N 33°12' E 032°60'914.4
2015-Jul-01 20:34N 33°04' E 032°54'1414.2
2015-Jul-01 19:33N 32°52' E 032°45'3114.3
2015-Jul-01 17:25N 32°27' E 032°25'  
2015-Jun-25 23:07N 35°40' E 017°28'915.9
2015-Jun-25 22:33N 35°43' E 017°17'  

Dump ship's entire track history